sensor_id;sensor_type;location;lat;lon;timestamp;P1;durP1;ratioP1;P2;durP2;ratioP2
49828;SDS011;35723;51.194;5.112;2023-04-15T00:01:17;18.58;;;6.10;;
49828;SDS011;35723;51.194;5.112;2023-04-15T00:03:44;14.90;;;5.30;;
49828;SDS011;35723;51.194;5.112;2023-04-15T00:06:10;16.00;;;5.57;;
49828;SDS011;35723;51.194;5.112;2023-04-15T00:08:36;17.13;;;6.18;;
49828;SDS011;35723;51.194;5.112;2023-04-15T00:11:02;15.13;;;5.65;;
49828;SDS011;35723;51.194;5.112;2023-04-15T00:13:29;16.75;;;5.88;;
49828;SDS011;35723;51.194;5.112;2023-04-15T00:15:56;16.30;;;5.75;;
49828;SDS011;35723;51.194;5.112;2023-04-15T00:18:22;15.55;;;5.38;;
49828;SDS011;35723;51.194;5.112;2023-04-15T00:20:48;15.02;;;5.38;;
49828;SDS011;35723;51.194;5.112;2023-04-15T00:23:14;15.02;;;5.35;;
49828;SDS011;35723;51.194;5.112;2023-04-15T00:25:40;17.38;;;5.60;;
49828;SDS011;35723;51.194;5.112;2023-04-15T00:28:05;15.45;;;4.90;;
49828;SDS011;35723;51.194;5.112;2023-04-15T00:30:31;15.05;;;5.18;;
49828;SDS011;35723;51.194;5.112;2023-04-15T00:32:57;15.68;;;5.07;;
49828;SDS011;35723;51.194;5.112;2023-04-15T00:35:23;13.85;;;5.03;;
49828;SDS011;35723;51.194;5.112;2023-04-15T00:37:48;15.27;;;5.45;;
49828;SDS011;35723;51.194;5.112;2023-04-15T00:40:15;17.10;;;4.85;;
49828;SDS011;35723;51.194;5.112;2023-04-15T00:42:43;20.33;;;5.40;;
49828;SDS011;35723;51.194;5.112;2023-04-15T00:45:09;18.55;;;5.53;;
49828;SDS011;35723;51.194;5.112;2023-04-15T00:47:36;18.08;;;5.18;;
49828;SDS011;35723;51.194;5.112;2023-04-15T00:50:03;15.02;;;5.22;;
49828;SDS011;35723;51.194;5.112;2023-04-15T00:52:29;15.88;;;5.10;;
49828;SDS011;35723;51.194;5.112;2023-04-15T00:54:55;17.33;;;4.88;;
49828;SDS011;35723;51.194;5.112;2023-04-15T00:57:20;14.55;;;5.00;;
49828;SDS011;35723;51.194;5.112;2023-04-15T00:59:46;15.07;;;5.15;;
49828;SDS011;35723;51.194;5.112;2023-04-15T01:02:13;18.13;;;5.15;;
49828;SDS011;35723;51.194;5.112;2023-04-15T01:04:39;14.68;;;5.05;;
49828;SDS011;35723;51.194;5.112;2023-04-15T01:07:05;15.68;;;5.00;;
49828;SDS011;35723;51.194;5.112;2023-04-15T01:09:31;13.80;;;5.00;;
49828;SDS011;35723;51.194;5.112;2023-04-15T01:11:57;16.45;;;5.55;;
49828;SDS011;35723;51.194;5.112;2023-04-15T01:14:23;17.90;;;5.20;;
49828;SDS011;35723;51.194;5.112;2023-04-15T01:16:49;18.17;;;4.75;;
49828;SDS011;35723;51.194;5.112;2023-04-15T01:19:17;16.00;;;4.78;;
49828;SDS011;35723;51.194;5.112;2023-04-15T01:21:43;14.90;;;4.60;;
49828;SDS011;35723;51.194;5.112;2023-04-15T01:24:09;19.17;;;5.18;;
49828;SDS011;35723;51.194;5.112;2023-04-15T01:26:38;13.57;;;5.03;;
49828;SDS011;35723;51.194;5.112;2023-04-15T01:29:04;27.63;;;6.03;;
49828;SDS011;35723;51.194;5.112;2023-04-15T01:31:31;13.95;;;5.10;;
49828;SDS011;35723;51.194;5.112;2023-04-15T01:33:57;17.33;;;5.38;;
49828;SDS011;35723;51.194;5.112;2023-04-15T01:36:23;17.73;;;5.68;;
49828;SDS011;35723;51.194;5.112;2023-04-15T01:38:48;19.58;;;6.30;;
49828;SDS011;35723;51.194;5.112;2023-04-15T01:41:15;17.55;;;5.65;;
49828;SDS011;35723;51.194;5.112;2023-04-15T01:43:41;15.73;;;5.40;;
49828;SDS011;35723;51.194;5.112;2023-04-15T01:46:07;16.73;;;5.90;;
49828;SDS011;35723;51.194;5.112;2023-04-15T01:48:32;19.75;;;5.75;;
49828;SDS011;35723;51.194;5.112;2023-04-15T01:50:58;17.55;;;6.03;;
49828;SDS011;35723;51.194;5.112;2023-04-15T01:53:24;17.75;;;5.97;;
49828;SDS011;35723;51.194;5.112;2023-04-15T01:55:50;21.20;;;6.60;;
49828;SDS011;35723;51.194;5.112;2023-04-15T01:58:16;14.88;;;6.05;;
49828;SDS011;35723;51.194;5.112;2023-04-15T02:00:42;19.23;;;6.13;;
49828;SDS011;35723;51.194;5.112;2023-04-15T02:03:08;20.15;;;6.50;;
49828;SDS011;35723;51.194;5.112;2023-04-15T02:05:34;16.85;;;6.15;;
49828;SDS011;35723;51.194;5.112;2023-04-15T02:07:59;20.50;;;6.63;;
49828;SDS011;35723;51.194;5.112;2023-04-15T02:10:25;21.30;;;6.72;;
49828;SDS011;35723;51.194;5.112;2023-04-15T02:12:51;17.73;;;6.03;;
49828;SDS011;35723;51.194;5.112;2023-04-15T02:15:18;17.25;;;6.55;;
49828;SDS011;35723;51.194;5.112;2023-04-15T02:17:44;21.75;;;6.40;;
49828;SDS011;35723;51.194;5.112;2023-04-15T02:20:14;18.20;;;6.60;;
49828;SDS011;35723;51.194;5.112;2023-04-15T02:22:42;16.58;;;6.47;;
49828;SDS011;35723;51.194;5.112;2023-04-15T02:25:07;19.88;;;6.70;;
49828;SDS011;35723;51.194;5.112;2023-04-15T02:27:34;16.48;;;6.53;;
49828;SDS011;35723;51.194;5.112;2023-04-15T02:30:00;22.02;;;6.90;;
49828;SDS011;35723;51.194;5.112;2023-04-15T02:32:26;19.30;;;6.65;;
49828;SDS011;35723;51.194;5.112;2023-04-15T02:34:53;21.45;;;7.00;;
49828;SDS011;35723;51.194;5.112;2023-04-15T02:37:19;14.68;;;6.55;;
49828;SDS011;35723;51.194;5.112;2023-04-15T02:39:44;20.15;;;7.07;;
49828;SDS011;35723;51.194;5.112;2023-04-15T02:42:10;16.58;;;6.45;;
49828;SDS011;35723;51.194;5.112;2023-04-15T02:44:37;21.23;;;6.85;;
49828;SDS011;35723;51.194;5.112;2023-04-15T02:47:03;20.13;;;6.85;;
49828;SDS011;35723;51.194;5.112;2023-04-15T02:49:31;22.45;;;6.93;;
49828;SDS011;35723;51.194;5.112;2023-04-15T02:51:56;20.45;;;6.93;;
49828;SDS011;35723;51.194;5.112;2023-04-15T02:54:24;20.60;;;7.05;;
49828;SDS011;35723;51.194;5.112;2023-04-15T02:56:52;19.30;;;7.22;;
49828;SDS011;35723;51.194;5.112;2023-04-15T02:59:20;18.73;;;6.80;;
49828;SDS011;35723;51.194;5.112;2023-04-15T03:01:46;21.13;;;7.00;;
49828;SDS011;35723;51.194;5.112;2023-04-15T03:04:11;19.80;;;7.45;;
49828;SDS011;35723;51.194;5.112;2023-04-15T03:06:38;20.33;;;7.25;;
49828;SDS011;35723;51.194;5.112;2023-04-15T03:09:03;16.70;;;6.70;;
49828;SDS011;35723;51.194;5.112;2023-04-15T03:11:29;19.50;;;6.93;;
49828;SDS011;35723;51.194;5.112;2023-04-15T03:13:55;17.73;;;7.10;;
49828;SDS011;35723;51.194;5.112;2023-04-15T03:16:22;18.15;;;7.63;;
49828;SDS011;35723;51.194;5.112;2023-04-15T03:18:48;19.15;;;7.43;;
49828;SDS011;35723;51.194;5.112;2023-04-15T03:21:14;16.35;;;6.63;;
49828;SDS011;35723;51.194;5.112;2023-04-15T03:23:40;19.83;;;7.22;;
49828;SDS011;35723;51.194;5.112;2023-04-15T03:26:06;20.88;;;7.05;;
49828;SDS011;35723;51.194;5.112;2023-04-15T03:28:31;16.88;;;6.97;;
49828;SDS011;35723;51.194;5.112;2023-04-15T03:30:58;16.60;;;7.10;;
49828;SDS011;35723;51.194;5.112;2023-04-15T03:33:23;18.55;;;7.18;;
49828;SDS011;35723;51.194;5.112;2023-04-15T03:35:50;17.98;;;7.15;;
49828;SDS011;35723;51.194;5.112;2023-04-15T03:38:16;17.27;;;7.22;;
49828;SDS011;35723;51.194;5.112;2023-04-15T03:40:42;21.85;;;7.45;;
49828;SDS011;35723;51.194;5.112;2023-04-15T03:43:10;18.15;;;6.88;;
49828;SDS011;35723;51.194;5.112;2023-04-15T03:45:36;19.48;;;7.53;;
49828;SDS011;35723;51.194;5.112;2023-04-15T03:48:01;21.23;;;7.15;;
49828;SDS011;35723;51.194;5.112;2023-04-15T03:50:27;17.95;;;7.35;;
49828;SDS011;35723;51.194;5.112;2023-04-15T03:52:53;17.92;;;7.35;;
49828;SDS011;35723;51.194;5.112;2023-04-15T03:55:18;18.67;;;7.25;;
49828;SDS011;35723;51.194;5.112;2023-04-15T03:57:44;16.55;;;7.05;;
49828;SDS011;35723;51.194;5.112;2023-04-15T04:00:10;20.63;;;7.57;;
49828;SDS011;35723;51.194;5.112;2023-04-15T04:02:36;18.88;;;7.45;;
49828;SDS011;35723;51.194;5.112;2023-04-15T04:05:02;21.00;;;8.10;;
49828;SDS011;35723;51.194;5.112;2023-04-15T04:07:28;18.73;;;7.63;;
49828;SDS011;35723;51.194;5.112;2023-04-15T04:09:55;16.75;;;7.43;;
49828;SDS011;35723;51.194;5.112;2023-04-15T04:12:21;22.35;;;7.88;;
49828;SDS011;35723;51.194;5.112;2023-04-15T04:14:47;18.95;;;7.50;;
49828;SDS011;35723;51.194;5.112;2023-04-15T04:17:13;22.75;;;8.48;;
49828;SDS011;35723;51.194;5.112;2023-04-15T04:19:38;24.02;;;8.73;;
49828;SDS011;35723;51.194;5.112;2023-04-15T04:22:04;18.63;;;7.80;;
49828;SDS011;35723;51.194;5.112;2023-04-15T04:24:30;18.90;;;8.05;;
49828;SDS011;35723;51.194;5.112;2023-04-15T04:26:56;19.80;;;8.73;;
49828;SDS011;35723;51.194;5.112;2023-04-15T04:29:22;20.20;;;8.02;;
49828;SDS011;35723;51.194;5.112;2023-04-15T04:31:47;23.08;;;8.52;;
49828;SDS011;35723;51.194;5.112;2023-04-15T04:34:14;21.20;;;8.52;;
49828;SDS011;35723;51.194;5.112;2023-04-15T04:36:40;19.58;;;7.93;;
49828;SDS011;35723;51.194;5.112;2023-04-15T04:39:05;21.00;;;8.20;;
49828;SDS011;35723;51.194;5.112;2023-04-15T04:41:32;19.50;;;8.25;;
49828;SDS011;35723;51.194;5.112;2023-04-15T04:43:57;23.45;;;8.32;;
49828;SDS011;35723;51.194;5.112;2023-04-15T04:46:23;27.23;;;8.98;;
49828;SDS011;35723;51.194;5.112;2023-04-15T04:48:49;23.35;;;9.25;;
49828;SDS011;35723;51.194;5.112;2023-04-15T04:51:15;23.33;;;8.70;;
49828;SDS011;35723;51.194;5.112;2023-04-15T04:53:41;20.13;;;8.75;;
49828;SDS011;35723;51.194;5.112;2023-04-15T04:56:07;21.90;;;8.70;;
49828;SDS011;35723;51.194;5.112;2023-04-15T04:58:33;18.25;;;8.52;;
49828;SDS011;35723;51.194;5.112;2023-04-15T05:00:58;20.33;;;8.70;;
49828;SDS011;35723;51.194;5.112;2023-04-15T05:03:24;20.33;;;8.73;;
49828;SDS011;35723;51.194;5.112;2023-04-15T05:05:51;22.23;;;9.30;;
49828;SDS011;35723;51.194;5.112;2023-04-15T05:08:17;23.40;;;9.50;;
49828;SDS011;35723;51.194;5.112;2023-04-15T05:10:42;20.92;;;9.70;;
49828;SDS011;35723;51.194;5.112;2023-04-15T05:13:08;22.05;;;9.63;;
49828;SDS011;35723;51.194;5.112;2023-04-15T05:15:33;21.98;;;10.48;;
49828;SDS011;35723;51.194;5.112;2023-04-15T05:18:01;25.40;;;11.32;;
49828;SDS011;35723;51.194;5.112;2023-04-15T05:20:26;22.45;;;11.60;;
49828;SDS011;35723;51.194;5.112;2023-04-15T05:22:52;25.20;;;12.05;;
49828;SDS011;35723;51.194;5.112;2023-04-15T05:25:18;25.10;;;12.10;;
49828;SDS011;35723;51.194;5.112;2023-04-15T05:27:44;22.75;;;12.30;;
49828;SDS011;35723;51.194;5.112;2023-04-15T05:30:10;25.77;;;12.73;;
49828;SDS011;35723;51.194;5.112;2023-04-15T05:32:36;25.02;;;13.18;;
49828;SDS011;35723;51.194;5.112;2023-04-15T05:35:01;28.05;;;13.90;;
49828;SDS011;35723;51.194;5.112;2023-04-15T05:37:27;26.63;;;13.98;;
49828;SDS011;35723;51.194;5.112;2023-04-15T05:39:53;24.95;;;13.65;;
49828;SDS011;35723;51.194;5.112;2023-04-15T05:42:18;26.80;;;14.18;;
49828;SDS011;35723;51.194;5.112;2023-04-15T05:44:44;35.30;;;15.75;;
49828;SDS011;35723;51.194;5.112;2023-04-15T05:47:10;28.40;;;14.45;;
49828;SDS011;35723;51.194;5.112;2023-04-15T05:49:35;29.58;;;14.80;;
49828;SDS011;35723;51.194;5.112;2023-04-15T05:52:01;29.08;;;15.15;;
49828;SDS011;35723;51.194;5.112;2023-04-15T05:54:27;30.30;;;15.85;;
49828;SDS011;35723;51.194;5.112;2023-04-15T05:56:53;28.80;;;15.35;;
49828;SDS011;35723;51.194;5.112;2023-04-15T05:59:19;27.23;;;14.95;;
49828;SDS011;35723;51.194;5.112;2023-04-15T06:01:44;27.70;;;15.30;;
49828;SDS011;35723;51.194;5.112;2023-04-15T06:04:10;28.60;;;15.55;;
49828;SDS011;35723;51.194;5.112;2023-04-15T06:06:36;31.27;;;14.95;;
49828;SDS011;35723;51.194;5.112;2023-04-15T06:09:02;27.92;;;15.85;;
49828;SDS011;35723;51.194;5.112;2023-04-15T06:11:28;30.98;;;15.40;;
49828;SDS011;35723;51.194;5.112;2023-04-15T06:13:54;30.75;;;18.65;;
49828;SDS011;35723;51.194;5.112;2023-04-15T06:16:20;32.05;;;17.67;;
49828;SDS011;35723;51.194;5.112;2023-04-15T06:18:47;32.03;;;16.58;;
49828;SDS011;35723;51.194;5.112;2023-04-15T06:21:12;29.92;;;15.40;;
49828;SDS011;35723;51.194;5.112;2023-04-15T06:23:39;32.45;;;15.50;;
49828;SDS011;35723;51.194;5.112;2023-04-15T06:26:07;26.45;;;15.35;;
49828;SDS011;35723;51.194;5.112;2023-04-15T06:28:33;27.00;;;14.75;;
49828;SDS011;35723;51.194;5.112;2023-04-15T06:30:58;26.90;;;14.63;;
49828;SDS011;35723;51.194;5.112;2023-04-15T06:33:25;28.08;;;14.70;;
49828;SDS011;35723;51.194;5.112;2023-04-15T06:35:51;33.10;;;14.65;;
49828;SDS011;35723;51.194;5.112;2023-04-15T06:38:16;26.70;;;13.65;;
49828;SDS011;35723;51.194;5.112;2023-04-15T06:40:42;28.55;;;13.55;;
49828;SDS011;35723;51.194;5.112;2023-04-15T06:43:08;26.63;;;13.73;;
49828;SDS011;35723;51.194;5.112;2023-04-15T06:45:34;26.17;;;13.57;;
49828;SDS011;35723;51.194;5.112;2023-04-15T06:48:00;24.63;;;13.50;;
49828;SDS011;35723;51.194;5.112;2023-04-15T06:50:25;26.17;;;13.38;;
49828;SDS011;35723;51.194;5.112;2023-04-15T06:52:52;27.05;;;13.70;;
49828;SDS011;35723;51.194;5.112;2023-04-15T06:55:18;25.63;;;13.48;;
49828;SDS011;35723;51.194;5.112;2023-04-15T06:57:44;25.15;;;13.38;;
49828;SDS011;35723;51.194;5.112;2023-04-15T07:00:10;26.48;;;13.13;;
49828;SDS011;35723;51.194;5.112;2023-04-15T07:02:36;22.15;;;12.50;;
49828;SDS011;35723;51.194;5.112;2023-04-15T07:05:02;24.50;;;12.48;;
49828;SDS011;35723;51.194;5.112;2023-04-15T07:07:28;25.92;;;13.18;;
49828;SDS011;35723;51.194;5.112;2023-04-15T07:09:54;27.13;;;12.98;;
49828;SDS011;35723;51.194;5.112;2023-04-15T07:12:20;22.02;;;12.35;;
49828;SDS011;35723;51.194;5.112;2023-04-15T07:14:45;22.35;;;12.45;;
49828;SDS011;35723;51.194;5.112;2023-04-15T07:17:11;28.73;;;12.80;;
49828;SDS011;35723;51.194;5.112;2023-04-15T07:19:37;22.42;;;11.75;;
49828;SDS011;35723;51.194;5.112;2023-04-15T07:22:02;24.27;;;12.23;;
49828;SDS011;35723;51.194;5.112;2023-04-15T07:24:28;28.55;;;12.55;;
49828;SDS011;35723;51.194;5.112;2023-04-15T07:26:54;25.25;;;11.95;;
49828;SDS011;35723;51.194;5.112;2023-04-15T07:29:22;25.48;;;12.40;;
49828;SDS011;35723;51.194;5.112;2023-04-15T07:31:48;23.75;;;11.68;;
49828;SDS011;35723;51.194;5.112;2023-04-15T07:34:13;21.73;;;11.30;;
49828;SDS011;35723;51.194;5.112;2023-04-15T07:36:40;24.63;;;11.77;;
49828;SDS011;35723;51.194;5.112;2023-04-15T07:39:06;22.83;;;11.43;;
49828;SDS011;35723;51.194;5.112;2023-04-15T07:41:32;21.65;;;11.60;;
49828;SDS011;35723;51.194;5.112;2023-04-15T07:43:57;22.58;;;11.57;;
49828;SDS011;35723;51.194;5.112;2023-04-15T07:46:23;21.80;;;10.63;;
49828;SDS011;35723;51.194;5.112;2023-04-15T07:48:51;24.63;;;11.25;;
49828;SDS011;35723;51.194;5.112;2023-04-15T07:51:17;20.52;;;10.10;;
49828;SDS011;35723;51.194;5.112;2023-04-15T07:53:43;21.83;;;10.98;;
49828;SDS011;35723;51.194;5.112;2023-04-15T07:56:09;20.25;;;9.82;;
49828;SDS011;35723;51.194;5.112;2023-04-15T07:58:35;19.08;;;9.63;;
49828;SDS011;35723;51.194;5.112;2023-04-15T08:01:01;20.08;;;10.02;;
49828;SDS011;35723;51.194;5.112;2023-04-15T08:03:28;22.15;;;9.77;;
49828;SDS011;35723;51.194;5.112;2023-04-15T08:05:54;22.65;;;10.35;;
49828;SDS011;35723;51.194;5.112;2023-04-15T08:08:19;18.70;;;9.32;;
49828;SDS011;35723;51.194;5.112;2023-04-15T08:10:45;18.23;;;9.73;;
49828;SDS011;35723;51.194;5.112;2023-04-15T08:13:11;16.35;;;8.15;;
49828;SDS011;35723;51.194;5.112;2023-04-15T08:15:36;18.77;;;8.43;;
49828;SDS011;35723;51.194;5.112;2023-04-15T08:18:02;17.77;;;8.23;;
49828;SDS011;35723;51.194;5.112;2023-04-15T08:20:28;16.30;;;7.80;;
49828;SDS011;35723;51.194;5.112;2023-04-15T08:22:54;16.38;;;7.45;;
49828;SDS011;35723;51.194;5.112;2023-04-15T08:25:20;13.93;;;6.95;;
49828;SDS011;35723;51.194;5.112;2023-04-15T08:27:45;14.05;;;6.28;;
49828;SDS011;35723;51.194;5.112;2023-04-15T08:30:11;17.17;;;7.13;;
49828;SDS011;35723;51.194;5.112;2023-04-15T08:32:37;12.13;;;6.10;;
49828;SDS011;35723;51.194;5.112;2023-04-15T08:35:03;14.63;;;6.25;;
49828;SDS011;35723;51.194;5.112;2023-04-15T08:37:29;14.55;;;6.43;;
49828;SDS011;35723;51.194;5.112;2023-04-15T08:39:55;14.70;;;6.40;;
49828;SDS011;35723;51.194;5.112;2023-04-15T08:42:30;12.48;;;6.10;;
49828;SDS011;35723;51.194;5.112;2023-04-15T08:45:00;12.70;;;6.53;;
49828;SDS011;35723;51.194;5.112;2023-04-15T08:47:29;14.40;;;7.00;;
49828;SDS011;35723;51.194;5.112;2023-04-15T08:49:58;13.93;;;6.47;;
49828;SDS011;35723;51.194;5.112;2023-04-15T08:52:25;14.07;;;6.32;;
49828;SDS011;35723;51.194;5.112;2023-04-15T08:54:53;14.77;;;6.90;;
49828;SDS011;35723;51.194;5.112;2023-04-15T08:57:24;14.85;;;6.68;;
49828;SDS011;35723;51.194;5.112;2023-04-15T08:59:51;16.55;;;7.57;;
49828;SDS011;35723;51.194;5.112;2023-04-15T09:02:19;16.35;;;7.82;;
49828;SDS011;35723;51.194;5.112;2023-04-15T09:04:46;17.27;;;7.63;;
49828;SDS011;35723;51.194;5.112;2023-04-15T09:07:11;17.30;;;7.15;;
49828;SDS011;35723;51.194;5.112;2023-04-15T09:09:37;14.95;;;6.75;;
49828;SDS011;35723;51.194;5.112;2023-04-15T09:12:04;14.27;;;6.97;;
49828;SDS011;35723;51.194;5.112;2023-04-15T09:14:29;17.90;;;6.70;;
49828;SDS011;35723;51.194;5.112;2023-04-15T09:19:26;15.52;;;6.72;;
49828;SDS011;35723;51.194;5.112;2023-04-15T09:21:55;13.63;;;6.07;;
49828;SDS011;35723;51.194;5.112;2023-04-15T09:24:22;14.60;;;6.53;;
49828;SDS011;35723;51.194;5.112;2023-04-15T09:26:52;12.43;;;5.70;;
49828;SDS011;35723;51.194;5.112;2023-04-15T09:29:19;13.57;;;6.35;;
49828;SDS011;35723;51.194;5.112;2023-04-15T09:31:48;13.90;;;5.82;;
49828;SDS011;35723;51.194;5.112;2023-04-15T09:34:13;13.27;;;5.78;;
49828;SDS011;35723;51.194;5.112;2023-04-15T09:36:55;12.00;;;5.40;;
49828;SDS011;35723;51.194;5.112;2023-04-15T09:39:21;14.90;;;5.70;;
49828;SDS011;35723;51.194;5.112;2023-04-15T09:42:02;11.73;;;4.93;;
49828;SDS011;35723;51.194;5.112;2023-04-15T09:44:29;11.18;;;4.93;;
49828;SDS011;35723;51.194;5.112;2023-04-15T09:46:55;12.82;;;5.00;;
49828;SDS011;35723;51.194;5.112;2023-04-15T09:49:21;10.40;;;4.60;;
49828;SDS011;35723;51.194;5.112;2023-04-15T09:51:47;12.95;;;4.68;;
49828;SDS011;35723;51.194;5.112;2023-04-15T09:54:14;10.68;;;4.63;;
49828;SDS011;35723;51.194;5.112;2023-04-15T09:56:44;9.00;;;4.18;;
49828;SDS011;35723;51.194;5.112;2023-04-15T09:59:10;11.20;;;4.57;;
49828;SDS011;35723;51.194;5.112;2023-04-15T10:01:36;12.45;;;4.60;;
49828;SDS011;35723;51.194;5.112;2023-04-15T10:04:03;10.68;;;4.80;;
49828;SDS011;35723;51.194;5.112;2023-04-15T10:06:29;11.40;;;5.18;;
49828;SDS011;35723;51.194;5.112;2023-04-15T10:08:58;12.40;;;4.72;;
49828;SDS011;35723;51.194;5.112;2023-04-15T10:11:26;9.75;;;4.63;;
49828;SDS011;35723;51.194;5.112;2023-04-15T10:13:53;9.35;;;4.28;;
49828;SDS011;35723;51.194;5.112;2023-04-15T10:16:21;11.65;;;4.15;;
49828;SDS011;35723;51.194;5.112;2023-04-15T10:18:53;9.48;;;3.97;;
49828;SDS011;35723;51.194;5.112;2023-04-15T10:21:20;9.00;;;4.13;;
49828;SDS011;35723;51.194;5.112;2023-04-15T10:23:47;6.68;;;3.55;;
49828;SDS011;35723;51.194;5.112;2023-04-15T10:26:14;7.70;;;3.00;;
49828;SDS011;35723;51.194;5.112;2023-04-15T10:28:41;5.47;;;2.30;;
49828;SDS011;35723;51.194;5.112;2023-04-15T10:31:07;6.10;;;2.70;;
49828;SDS011;35723;51.194;5.112;2023-04-15T10:33:38;7.78;;;2.25;;
49828;SDS011;35723;51.194;5.112;2023-04-15T10:36:07;7.13;;;2.50;;
49828;SDS011;35723;51.194;5.112;2023-04-15T10:41:20;6.13;;;2.10;;
49828;SDS011;35723;51.194;5.112;2023-04-15T10:46:17;6.70;;;2.47;;
49828;SDS011;35723;51.194;5.112;2023-04-15T10:48:46;5.68;;;2.22;;
49828;SDS011;35723;51.194;5.112;2023-04-15T10:51:24;8.77;;;2.50;;
49828;SDS011;35723;51.194;5.112;2023-04-15T10:53:55;8.27;;;2.17;;
49828;SDS011;35723;51.194;5.112;2023-04-15T10:56:22;6.47;;;2.53;;
49828;SDS011;35723;51.194;5.112;2023-04-15T10:58:47;6.43;;;2.50;;
49828;SDS011;35723;51.194;5.112;2023-04-15T11:01:13;7.20;;;2.70;;
49828;SDS011;35723;51.194;5.112;2023-04-15T11:03:39;5.72;;;2.60;;
49828;SDS011;35723;51.194;5.112;2023-04-15T11:06:06;5.55;;;2.60;;
49828;SDS011;35723;51.194;5.112;2023-04-15T11:08:52;6.55;;;2.75;;
49828;SDS011;35723;51.194;5.112;2023-04-15T11:11:25;7.68;;;3.30;;
49828;SDS011;35723;51.194;5.112;2023-04-15T11:16:52;10.02;;;3.50;;
49828;SDS011;35723;51.194;5.112;2023-04-15T11:19:18;7.38;;;3.30;;
49828;SDS011;35723;51.194;5.112;2023-04-15T11:21:43;4.80;;;2.60;;
49828;SDS011;35723;51.194;5.112;2023-04-15T11:24:09;3.25;;;2.15;;
49828;SDS011;35723;51.194;5.112;2023-04-15T11:26:35;5.70;;;2.25;;
49828;SDS011;35723;51.194;5.112;2023-04-15T11:29:00;6.10;;;2.10;;
49828;SDS011;35723;51.194;5.112;2023-04-15T11:31:26;4.20;;;1.55;;
49828;SDS011;35723;51.194;5.112;2023-04-15T11:36:18;4.22;;;1.70;;
49828;SDS011;35723;51.194;5.112;2023-04-15T11:38:45;3.55;;;1.77;;
49828;SDS011;35723;51.194;5.112;2023-04-15T11:41:11;5.63;;;1.92;;
49828;SDS011;35723;51.194;5.112;2023-04-15T11:43:37;4.82;;;1.80;;
49828;SDS011;35723;51.194;5.112;2023-04-15T11:46:03;4.25;;;1.95;;
49828;SDS011;35723;51.194;5.112;2023-04-15T11:48:30;4.05;;;1.98;;
49828;SDS011;35723;51.194;5.112;2023-04-15T11:51:01;6.07;;;2.20;;
49828;SDS011;35723;51.194;5.112;2023-04-15T11:56:03;5.68;;;2.25;;
49828;SDS011;35723;51.194;5.112;2023-04-15T11:58:30;6.82;;;2.55;;
49828;SDS011;35723;51.194;5.112;2023-04-15T12:00:59;4.68;;;2.45;;
49828;SDS011;35723;51.194;5.112;2023-04-15T12:08:52;5.03;;;2.50;;
49828;SDS011;35723;51.194;5.112;2023-04-15T12:13:53;6.65;;;2.60;;
49828;SDS011;35723;51.194;5.112;2023-04-15T12:16:21;5.88;;;2.50;;
49828;SDS011;35723;51.194;5.112;2023-04-15T12:18:51;6.00;;;2.70;;
49828;SDS011;35723;51.194;5.112;2023-04-15T12:21:20;3.13;;;2.10;;
49828;SDS011;35723;51.194;5.112;2023-04-15T12:23:47;4.78;;;2.28;;
49828;SDS011;35723;51.194;5.112;2023-04-15T12:26:14;7.32;;;2.70;;
49828;SDS011;35723;51.194;5.112;2023-04-15T12:28:41;6.88;;;2.60;;
49828;SDS011;35723;51.194;5.112;2023-04-15T12:31:07;4.28;;;2.28;;
49828;SDS011;35723;51.194;5.112;2023-04-15T12:33:34;3.45;;;1.98;;
49828;SDS011;35723;51.194;5.112;2023-04-15T12:35:59;4.85;;;2.05;;
49828;SDS011;35723;51.194;5.112;2023-04-15T12:38:25;4.65;;;2.08;;
49828;SDS011;35723;51.194;5.112;2023-04-15T12:40:51;2.80;;;1.80;;
49828;SDS011;35723;51.194;5.112;2023-04-15T12:43:16;5.28;;;1.80;;
49828;SDS011;35723;51.194;5.112;2023-04-15T12:45:42;3.28;;;1.90;;
49828;SDS011;35723;51.194;5.112;2023-04-15T12:48:08;6.97;;;2.17;;
49828;SDS011;35723;51.194;5.112;2023-04-15T12:50:34;3.25;;;1.90;;
49828;SDS011;35723;51.194;5.112;2023-04-15T12:53:00;6.40;;;2.30;;
49828;SDS011;35723;51.194;5.112;2023-04-15T12:55:27;4.97;;;2.10;;
49828;SDS011;35723;51.194;5.112;2023-04-15T12:57:54;4.43;;;1.98;;
49828;SDS011;35723;51.194;5.112;2023-04-15T13:00:20;3.92;;;2.00;;
49828;SDS011;35723;51.194;5.112;2023-04-15T13:02:46;6.15;;;2.30;;
49828;SDS011;35723;51.194;5.112;2023-04-15T13:05:12;3.90;;;2.20;;
49828;SDS011;35723;51.194;5.112;2023-04-15T13:07:39;4.32;;;2.20;;
49828;SDS011;35723;51.194;5.112;2023-04-15T13:10:08;6.25;;;2.30;;
49828;SDS011;35723;51.194;5.112;2023-04-15T13:12:34;5.25;;;2.03;;
49828;SDS011;35723;51.194;5.112;2023-04-15T13:15:01;6.78;;;2.17;;
49828;SDS011;35723;51.194;5.112;2023-04-15T13:17:28;5.50;;;2.30;;
49828;SDS011;35723;51.194;5.112;2023-04-15T13:19:53;4.85;;;2.13;;
49828;SDS011;35723;51.194;5.112;2023-04-15T13:22:19;3.58;;;2.10;;
49828;SDS011;35723;51.194;5.112;2023-04-15T13:24:45;5.28;;;2.42;;
49828;SDS011;35723;51.194;5.112;2023-04-15T13:27:11;5.90;;;2.50;;
49828;SDS011;35723;51.194;5.112;2023-04-15T13:29:36;7.88;;;2.78;;
49828;SDS011;35723;51.194;5.112;2023-04-15T13:32:04;10.82;;;2.50;;
49828;SDS011;35723;51.194;5.112;2023-04-15T13:34:30;5.30;;;2.42;;
49828;SDS011;35723;51.194;5.112;2023-04-15T13:36:56;3.78;;;2.30;;
49828;SDS011;35723;51.194;5.112;2023-04-15T13:39:21;10.23;;;2.08;;
49828;SDS011;35723;51.194;5.112;2023-04-15T13:41:47;7.55;;;2.42;;
49828;SDS011;35723;51.194;5.112;2023-04-15T13:44:13;4.88;;;2.00;;
49828;SDS011;35723;51.194;5.112;2023-04-15T13:46:39;4.43;;;1.90;;
49828;SDS011;35723;51.194;5.112;2023-04-15T13:49:06;7.03;;;2.28;;
49828;SDS011;35723;51.194;5.112;2023-04-15T13:51:32;5.90;;;2.45;;
49828;SDS011;35723;51.194;5.112;2023-04-15T13:54:00;5.75;;;2.30;;
49828;SDS011;35723;51.194;5.112;2023-04-15T13:56:25;7.97;;;2.40;;
49828;SDS011;35723;51.194;5.112;2023-04-15T13:58:51;3.00;;;1.70;;
49828;SDS011;35723;51.194;5.112;2023-04-15T14:01:18;4.15;;;1.80;;
49828;SDS011;35723;51.194;5.112;2023-04-15T14:03:44;3.35;;;1.60;;
49828;SDS011;35723;51.194;5.112;2023-04-15T14:06:10;2.25;;;1.60;;
49828;SDS011;35723;51.194;5.112;2023-04-15T14:08:35;5.38;;;1.65;;
49828;SDS011;35723;51.194;5.112;2023-04-15T14:11:01;3.53;;;2.05;;
49828;SDS011;35723;51.194;5.112;2023-04-15T14:13:27;4.93;;;1.98;;
49828;SDS011;35723;51.194;5.112;2023-04-15T14:15:52;4.45;;;2.10;;
49828;SDS011;35723;51.194;5.112;2023-04-15T14:18:18;5.65;;;2.05;;
49828;SDS011;35723;51.194;5.112;2023-04-15T14:20:44;5.63;;;1.77;;
49828;SDS011;35723;51.194;5.112;2023-04-15T14:23:10;3.33;;;1.27;;
49828;SDS011;35723;51.194;5.112;2023-04-15T14:25:35;7.38;;;1.60;;
49828;SDS011;35723;51.194;5.112;2023-04-15T14:28:03;3.17;;;1.45;;
49828;SDS011;35723;51.194;5.112;2023-04-15T14:30:28;3.58;;;1.50;;
49828;SDS011;35723;51.194;5.112;2023-04-15T14:32:54;3.58;;;1.60;;
49828;SDS011;35723;51.194;5.112;2023-04-15T14:35:20;3.40;;;1.40;;
49828;SDS011;35723;51.194;5.112;2023-04-15T14:37:45;4.70;;;2.00;;
49828;SDS011;35723;51.194;5.112;2023-04-15T14:40:11;3.33;;;2.00;;
49828;SDS011;35723;51.194;5.112;2023-04-15T14:42:37;8.43;;;2.55;;
49828;SDS011;35723;51.194;5.112;2023-04-15T14:45:02;4.93;;;2.25;;
49828;SDS011;35723;51.194;5.112;2023-04-15T14:47:28;5.57;;;2.10;;
49828;SDS011;35723;51.194;5.112;2023-04-15T14:49:55;5.93;;;2.10;;
49828;SDS011;35723;51.194;5.112;2023-04-15T14:52:20;3.95;;;2.13;;
49828;SDS011;35723;51.194;5.112;2023-04-15T14:54:46;5.20;;;2.15;;